San Diego Classic - Holiday Cup - Inventory

Station: INVENTORY - T Race

Distance: 10 Miles    

Release: 03-Aug-2017 16:00

Weather Release:    Arrival:

Wind at Release:     Wind at Arrival:

Temp at Release: °    Temp at Arrival: °

Lofts: 129

Birds: 700

Clocked: 599

Good Luck to Everyone!
Drops Pos Breeder Pigeon Name Color Sex Ent Arrival Speed To Win Eligible RaceAvg Speed
99 Winnerscupusa.Com - OK 43755-AU17-ARPU BC H 2 17:31:37.50 192.087 00:46:03 Missing
100 El Dorado Lofts Canada - BC 9334-CU17-CRPU BBSP H 1 17:31:37.90 192.073 00:46:03 Lost
101 F & D Lofts - AB 17112-AU17-FD BBWF H 1 17:31:42.40 191.916 00:46:08 Yes
102 The Association - CA 1722-AU17-WBO Cecil's Lucky Number DC C 2 17:32:19.10 190.645 00:46:45 Yes
103 Arrowhead Loft - CA 0012-AU17-AH BBSP H 3 17:32:33.30 190.157 00:46:59 Lost
104 Christian & Adam Gluck - CA 0542-AU17-OBC BB H 1 17:32:35.30 190.089 00:47:01 Lost
105 Christian & Adam Gluck - CA 0543-AU17-OBC BB H 2 17:33:01.80 189.186 00:47:27 Yes
Cn-Tou Loft - TN 0036-AU17-TOUL BB H 17:34:20.20 186.566 Yes
106 Tom Cano Family - CA 0709-AU17-SD BB H 2 17:34:43.80 185.791 00:49:09 Yes
107 Nanez Family Lofts - WI 4358-AU17-NANE BB H 2 17:34:48.10 185.651 00:49:14 Lost
108 Anthony Cuba - CA 3181-AU17-HP BB H 1 17:35:05.20 185.094 00:49:31 Yes
109 Team Phoenix - AZ 0229-AU17-SUNB BB H 3 17:35:11.50 184.890 00:49:37 Yes
110 Pleasant Task Farm - PA 0773-AU17-PTF 218x4082 BC H 1 17:36:14.30 182.879 00:50:40 Yes
111 Mesopotamia Loft - MN 0332-AU17-MESO BB H 1 17:36:52.60 181.674 00:51:18 Yes
112 De La O -Lopez - CA 1540-AU17-TCH BC H 1 17:37:00.00 181.443 00:51:26 Yes
113 Pairan Racing Loft - OH 0318-AU17-LFO BBSP H 2 17:39:27.90 176.947 00:53:53 Yes
114 Kily 77 - CA 0296-AU17-WEF SIL H 1 17:39:50.60 176.276 00:54:16 Lost
115 Winnerscupusa.Com - OK 8149-AU17-TRPC BBPD H 3 17:39:52.10 176.232 00:54:18 Yes
116 A P C Loft - TX 17205-AU17-APC BB H 2 17:41:28.10 173.453 00:55:54 Yes
117 Aok Loft - NE 0978-AU17-OMA BB H 4 17:42:15.50 172.113 00:56:41 Yes
118 Mcconnell Loft - FL 1807-AU17-GHC BBWF H 1 17:43:10.70 170.578 00:57:36 Yes
119 C L & Patty Gage - TX 2923-AU17-TEX RC H 4 17:43:17.20 170.400 00:57:43 Missing
120 We Be She's - NV 17148-AU17-TBW BB H 2 17:43:21.50 170.281 00:57:47 Yes
121 Stephen Brothers - CA 0721-AU17-COM BBWF H 1 17:43:23.20 170.235 00:57:49 Lost
122 Los Barneros - CA 0399-AU17-SLO BBWF H 1 17:43:29.30 170.067 00:57:55 Lost
123 Nicholls Lofts - BC 9138-CU17-CRPU BB H 1 17:45:47.00 166.378 01:00:12 Yes
124 Drama Queen Loft - TX 0400-AU17-GCI BBSP H 1 17:45:58.30 166.082 01:00:24 Yes
125 Utaz Team - UT 0991-AU17-SLI BB H 2 17:46:57.90 164.540 01:01:23 Lost
126 Wayne Herron - CA 1707-AU17-SD BC H 2 17:49:22.90 160.904 01:03:48 Lost
127 Shiloft - PA 5005-AU17-ERIE BC H 2 17:49:28.80 160.760 01:03:54 Yes
128 A V A Lofts - CA 28299-AU17-JEDD BB H 1 17:49:41.90 160.440 01:04:07 Lost
129 Bob Carney - CT 1006-IF17-LCC BC H 1 17:50:00.70 159.983 01:04:26 Lost
- 0966-AU17-SIL 17:51:52.00 157.330
130 Hi-Cal Connection - CA 0780-AU17-HCAL BB H 1 17:54:23.80 153.851 01:08:49 Missing
131 Iv Aces Loft - CA 22001-AU17-JEDD BB H 1 17:54:52.90 153.201 01:09:18 Yes
132 Any Given Day-Quest - TX 17059-AU17-AGD BB H 1 17:54:56.70 153.117 01:09:22 Yes
133 Pairan Racing Loft - OH 0323-AU17-LFO GRIZ H 3 17:55:45.50 152.041 01:10:11 Yes
134 Bird Love To Fly - CA 1068-AU17-MCLO BC H 2 17:56:15.00 151.398 01:10:40 Yes
135 C & D Loft - CA 0402-AU17-PAL CHOC H 1 17:56:18.40 151.324 01:10:44 Yes
136 Hawaiian Express - CA 0167-AU17-HAWE BB H 2 17:56:25.10 151.179 01:10:51 Yes
137 A P C Loft - TX 17203-AU17-APC BC H 3 17:56:43.70 150.777 01:11:09 Yes
138 Carlton Kroese-Crazy Al - CO 1128-AU17-HOHC BC H 2 17:56:48.90 150.666 01:11:14 Yes
139 - 65382-AU17-MEX 1 17:56:52.40 150.590 01:11:18
140 Rick Barker - CA 0065-AU17-VIP BBWF H 2 17:58:18.50 148.764 01:12:44 Yes
141 7-11 Syndicate - CA 0928-AU17-SD BCWF H 1 17:59:09.90 147.694 01:13:35 Yes
142 Team Phoenix - AZ 0212-AU17-SUN BB H 4 17:59:41.20 147.051 01:14:07 Yes
143 A P C Loft - TX 17223-AU17-APC GRIZ H 4 18:00:01.60 146.634 01:14:27 Yes
144 Desert Rose Lofts - NV 0257-AU17-DRL DCWF H 3 18:00:09.30 146.477 01:14:35 Yes
145 Two-Be-Won - NV 17120-AU17-TBW BBWF H 3 18:00:51.70 145.621 01:15:17 Yes
146 Van-Robins - CA 0754-AU17-OCF DC H 2 18:01:50.30 144.454 01:16:16 Yes
Dream Team - VT 0887-AU17-GZCL BBSP H 18:02:23.90 143.793 Yes
147 Nemeth Family Loft - CA 9061-AU17-BON BCPD H 3 18:03:29.70 142.516 01:17:55 Yes
Cn-Tou Loft - TN 0062-AU17-TOUL BC H 18:03:57.50 141.983 Yes
148 Jalisco - CA 1920-AU17-JALI BBWF H 2 18:04:22.90 141.500 01:18:48 Yes
149 Jedds Bird Suppies - CA 1312-AU17-JEDD BBWF H 1 18:04:41.30 141.152 01:19:07 Yes
150 Haslem-Stevens - UT 7925-AU17-COR BB H 3 18:04:50.60 140.977 01:19:16 Yes
151 Bird Love To Fly - CA 33086-AU17-JEDD DC H 3 18:04:58.60 140.826 01:19:24 Yes
152 Koepf & Mcknight - CA 21260-AU17-JEDD BC H 4 18:05:28.50 140.267 01:19:54 Missing
153 7-11 Syndicate - CA 0935-AU17-SD BBWF H 2 18:05:48.80 139.890 01:20:14 Yes
154 Venn Kids - WY 1921-AU17-VENN BB H 1 18:06:11.50 139.470 01:20:37 Yes
155 Jenkins Racing - CA 0021-AU17-WEF Rockfonso BB H 2 18:07:21.80 138.187 01:21:47 Yes
156 Bryan Maier - PA 0359-AU17-MAIE BB H 2 18:07:27.00 138.093 01:21:53 Lost
157 Christian & Adam Gluck - CA 0551-AU17-OBC BB H 3 18:07:39.10 137.875 01:22:05 Yes
158 Baldwin & Tilson - NC 7115-AU17-TENI BB H 1 18:08:15.80 137.218 01:22:41 Yes
159 Nemelka Racing Pigeon Loft - UT 7102-AU17-NRPL 4010 x Miss Beautiful BC H 1 18:08:18.70 137.166 01:22:44 Yes
160 Baldwin & Tilson - NC 7116-AU17-TENI BBWF H 2 18:08:24.10 137.070 01:22:50 Lost
161 Milestone Loft - CA 0140-AU17-SD BB H 5 18:08:43.50 136.726 01:23:09 Yes
162 Tenbrink Irma & Eddie - CA 0339-AU17-VIP BB H 2 18:08:52.80 136.561 01:23:18 Yes
163 Iv Aces Loft - CA 21999-AU17-JEDD BC H 2 18:08:55.90 136.506 01:23:21 Yes
164 Kolvenbag & Son - PA 3362-IF17-WC BC H 2 18:09:34.00 135.837 01:24:00 Lost
165 7-11 Syndicate - CA 0937-AU17-SD BBSP H 3 18:09:54.50 135.480 01:24:20 Yes
166 Four For More 2 - CA 1722-AU17-CVII BB H 2 18:10:11.80 135.180 01:24:37 Yes
167 Milestone Loft - CA 0129-AU17-SD BB H 6 18:10:15.40 135.118 01:24:41 Yes
168 El Dorado Lofts Canada - BC 9338-CU17-CRPU BB H 2 18:10:17.90 135.075 01:24:43 Lost
169 Zhenyuan Guo - SC 0649-AU17-GUO BC H 2 18:10:19.90 135.040 01:24:45 Lost
170 Jenkins Racing - CA 0004-AU17-WEF 647 X 127 BC H 3 18:10:23.20 134.983 01:24:49 Yes
171 Nemeth Family Loft - CA 9013-AU17-BON BC H 4 18:10:41.50 134.668 01:25:07 Yes
172 Duane Gragg - CA 0714-AU17-KEYH BB H 2 18:10:44.10 134.623 01:25:10 Yes
173 English Syn 3 - LA 0316-AU17-MET BB H 1 18:10:49.20 134.536 01:25:15 Yes
174 T A J Loft - CA 21312-AU17-JEDD BB H 1 18:11:08.30 134.209 01:25:34 Yes
175 We Be She's - NV 17005-AU17-TBW BB H 3 18:11:09.70 134.186 01:25:35 Yes
176 A P C Loft - TX 17214-AU17-APC BB H 5 18:12:10.60 133.155 01:26:36 Yes
177 U Cluj - NV 12007-AU17-JEDD BBPD H 4 18:12:13.90 133.100 01:26:39 Yes
178 Baldwin & Tilson - NC 7119-AU17-TENT BB H 3 18:12:14.20 133.095 01:26:40 Lost
179 America\'s Dream Loft - IL 0218-AU17-ADL BB H 2 18:12:16.50 133.056 01:26:42 Lost
Cn-Tou Loft - TN 0067-AU17-TOUL BBSP H 18:12:21.00 132.981 Lost
180 Missiles Castro - AZ 2470-AU17-MISS BBSP H 3 18:12:27.60 132.870 01:26:53 Lost
181 Lamberton Loft - OK 0093-AU17-LAMB BB H 1 18:12:32.80 132.783 01:26:58 Yes
182 Bryan Maier - PA 0387-AU17-MAIE BCWF H 3 18:12:34.60 132.753 01:27:00 Yes
183 Pairan Racing Loft - OH 0312-AU17-LFO BC H 4 18:12:37.00 132.713 01:27:03 Yes
184 Stephen Brothers - CA 0730-AU17-COM BB H 2 18:12:37.50 132.705 01:27:03 Yes
185 Four For More 2 - CA 1724-AU17-CVII BBWF H 3 18:12:47.80 132.533 01:27:13 Yes
186 Humberto Munoz - EM 65374-AU17-MEX BB H 2 18:12:49.70 132.502 01:27:15 Yes
187 The Association - CA 0773-AU17-JEDD C'mon 773 BB H 3 18:13:05.70 132.236 01:27:31 Missing
188 Tim Brandon - CA 0182-AU17-OCF BB H 1 18:13:21.80 131.970 01:27:47 Missing
189 The Association - CA 1790-AU17-WBO No Doubt's Lil Request BC C 4 18:13:22.90 131.952 01:27:48 Yes
190 Flying D Loft - TX 0160-AU17-FLYD BCSP H 1 18:13:59.90 131.345 01:28:25 Yes
191 We Be She's - NV 17147-AU17-TBW BB H 4 18:14:03.40 131.288 01:28:29 Missing
192 Mesopotamia Loft - MN 0338-AU17-MESO BCWF H 2 18:14:11.30 131.159 01:28:37 Yes
193 Tom Cano Family - CA 0704-AU17-SD BBPD H 3 18:14:58.60 130.393 01:29:24 Yes

There are 452 bird records

Note: These Race Results are unofficial and subject to change until verified by the Race Committee and declared final.